Time;durP1;ratioP1;P1;durP2;ratioP2;P2;SDS_P1;SDS_P2;PMS_P1;PMS_P2;Temp;Humidity;BMP_temperature;BMP_pressure;BME280_temperature;BME280_humidity;BME280_pressure;Samples;Min_cycle;Max_cycle;Signal;HPM_P1;HPM_P2
2024/01/12 00:00:16;;;;;;;41.72;20.70;;;;;;;;;;4978234;28;20525;-81
2024/01/12 00:02:41;;;;;;;42.75;25.85;;;;;;;;;;5010603;28;20038;-80
2024/01/12 00:05:08;;;;;;;38.47;20.48;;;;;;;;;;4982686;28;20049;-81
2024/01/12 00:07:33;;;;;;;11.82;10.10;;;;;;;;;;4965968;28;20042;-80
2024/01/12 00:09:59;;;;;;;13.80;12.68;;;;;;;;;;4966120;28;20064;-81
2024/01/12 00:12:25;;;;;;;32.88;18.77;;;;;;;;;;4982327;28;20053;-80
2024/01/12 00:14:50;;;;;;;20.52;15.60;;;;;;;;;;4979991;28;20051;-80
2024/01/12 00:17:19;;;;;;;31.45;20.40;;;;;;;;;;4978858;28;20690;-80
2024/01/12 00:19:48;;;;;;;44.40;24.48;;;;;;;;;;4979018;28;20139;-80
2024/01/12 00:22:13;;;;;;;41.20;22.98;;;;;;;;;;4978039;28;20034;-79
2024/01/12 00:24:39;;;;;;;17.65;13.10;;;;;;;;;;4978892;28;20405;-79
2024/01/12 00:27:05;;;;;;;32.53;23.23;;;;;;;;;;4946054;28;20512;-79
2024/01/12 00:29:30;;;;;;;15.15;13.70;;;;;;;;;;4966546;28;20038;-78
2024/01/12 00:31:56;;;;;;;29.08;20.75;;;;;;;;;;4964503;28;20850;-80
2024/01/12 00:34:22;;;;;;;31.33;18.75;;;;;;;;;;4981875;28;20038;-80
2024/01/12 00:36:49;;;;;;;34.03;18.23;;;;;;;;;;4983139;28;20049;-80
2024/01/12 00:39:17;;;;;;;41.35;24.27;;;;;;;;;;4964376;28;20757;-80
2024/01/12 00:41:42;;;;;;;43.90;23.30;;;;;;;;;;5011228;28;20066;-80
2024/01/12 00:44:08;;;;;;;43.92;13.38;;;;;;;;;;4986066;28;20072;-80
2024/01/12 00:46:34;;;;;;;24.98;17.65;;;;;;;;;;4984173;28;20046;-80
2024/01/12 00:48:59;;;;;;;16.17;11.77;;;;;;;;;;4981178;28;20496;-80
2024/01/12 00:51:25;;;;;;;29.80;18.13;;;;;;;;;;4983681;28;20291;-80
2024/01/12 00:53:51;;;;;;;64.00;25.95;;;;;;;;;;4983645;28;20042;-81
2024/01/12 00:56:16;;;;;;;48.67;28.92;;;;;;;;;;5013713;28;20881;-80
2024/01/12 00:58:42;;;;;;;50.83;25.85;;;;;;;;;;4999357;28;20046;-80
2024/01/12 01:01:11;;;;;;;39.33;25.23;;;;;;;;;;5014465;28;20046;-80
2024/01/12 01:03:37;;;;;;;36.20;22.25;;;;;;;;;;4990019;28;20038;-80
2024/01/12 01:06:03;;;;;;;41.28;27.60;;;;;;;;;;4964820;28;20042;-79
2024/01/12 01:08:29;;;;;;;46.47;29.40;;;;;;;;;;5017011;28;20042;-80
2024/01/12 01:10:55;;;;;;;28.27;20.38;;;;;;;;;;4984827;28;20045;-81
2024/01/12 01:13:20;;;;;;;49.90;30.38;;;;;;;;;;4986158;28;20042;-81
2024/01/12 01:15:46;;;;;;;23.60;18.00;;;;;;;;;;4983296;28;20046;-80
2024/01/12 01:18:12;;;;;;;44.28;28.33;;;;;;;;;;4964709;28;20101;-80
2024/01/12 01:20:38;;;;;;;40.20;25.58;;;;;;;;;;4985039;28;20038;-80
2024/01/12 01:23:05;;;;;;;24.15;16.67;;;;;;;;;;4986937;28;20050;-81
2024/01/12 01:25:30;;;;;;;54.38;27.10;;;;;;;;;;4989942;28;20053;-80
2024/01/12 01:27:56;;;;;;;41.15;24.50;;;;;;;;;;4984557;28;20046;-80
2024/01/12 01:30:22;;;;;;;31.58;20.00;;;;;;;;;;5014277;28;20381;-79
2024/01/12 01:32:48;;;;;;;37.72;33.67;;;;;;;;;;4984884;28;20492;-79
2024/01/12 01:35:15;;;;;;;9.20;8.60;;;;;;;;;;5012213;28;20568;-80
2024/01/12 01:37:40;;;;;;;6.00;5.68;;;;;;;;;;4986164;28;20077;-80
2024/01/12 01:40:07;;;;;;;15.23;11.75;;;;;;;;;;4981024;28;20531;-81
2024/01/12 01:42:33;;;;;;;25.20;15.85;;;;;;;;;;4963586;28;20039;-79
2024/01/12 01:45:00;;;;;;;38.42;18.67;;;;;;;;;;4982267;28;20052;-79
2024/01/12 01:47:27;;;;;;;23.23;20.13;;;;;;;;;;4970170;28;20859;-79
2024/01/12 01:49:52;;;;;;;50.35;28.40;;;;;;;;;;4986754;28;20048;-79
2024/01/12 01:52:20;;;;;;;54.30;30.90;;;;;;;;;;4979107;28;20034;-79
2024/01/12 01:54:47;;;;;;;26.90;20.85;;;;;;;;;;4981465;28;20050;-79
2024/01/12 01:57:12;;;;;;;49.15;23.15;;;;;;;;;;4980621;28;20139;-79
2024/01/12 01:59:39;;;;;;;43.88;26.20;;;;;;;;;;4980117;28;20073;-79
2024/01/12 02:02:05;;;;;;;36.45;23.95;;;;;;;;;;4994284;28;20038;-80
2024/01/12 02:04:31;;;;;;;21.02;13.98;;;;;;;;;;4981265;28;20548;-80
2024/01/12 02:06:56;;;;;;;15.32;10.27;;;;;;;;;;4982986;28;20046;-79
2024/01/12 02:09:23;;;;;;;31.92;21.80;;;;;;;;;;4995544;28;20141;-80
2024/01/12 02:11:49;;;;;;;31.65;19.80;;;;;;;;;;4968467;28;20041;-80
2024/01/12 02:14:15;;;;;;;31.48;21.05;;;;;;;;;;4980098;28;20038;-81
2024/01/12 02:16:41;;;;;;;14.73;13.38;;;;;;;;;;4979871;28;20204;-81
2024/01/12 02:19:06;;;;;;;46.45;27.10;;;;;;;;;;4981835;28;20053;-81
2024/01/12 02:21:32;;;;;;;38.92;24.85;;;;;;;;;;4983905;28;20042;-80
2024/01/12 02:23:57;;;;;;;22.38;17.02;;;;;;;;;;4982098;28;20503;-80
2024/01/12 02:26:23;;;;;;;28.50;17.55;;;;;;;;;;4993453;28;20393;-80
2024/01/12 02:28:49;;;;;;;21.80;16.92;;;;;;;;;;4964896;28;20050;-81
2024/01/12 02:31:15;;;;;;;43.63;24.75;;;;;;;;;;4981327;28;20117;-81
2024/01/12 02:33:41;;;;;;;14.52;13.15;;;;;;;;;;4977536;28;20128;-80
2024/01/12 02:36:07;;;;;;;15.30;13.93;;;;;;;;;;4981716;28;20710;-79
2024/01/12 02:38:33;;;;;;;38.17;23.77;;;;;;;;;;4965186;28;20034;-81
2024/01/12 02:40:58;;;;;;;49.75;23.98;;;;;;;;;;4985654;28;20759;-80
2024/01/12 02:43:24;;;;;;;15.95;14.13;;;;;;;;;;4975151;28;20571;-81
2024/01/12 02:45:50;;;;;;;33.05;23.25;;;;;;;;;;4980247;28;20057;-80
2024/01/12 02:48:15;;;;;;;26.73;19.58;;;;;;;;;;5012245;28;20191;-80
2024/01/12 02:50:41;;;;;;;29.42;20.48;;;;;;;;;;4982974;28;20034;-80
2024/01/12 02:53:07;;;;;;;28.52;17.88;;;;;;;;;;4978652;28;20030;-81
2024/01/12 02:55:32;;;;;;;17.20;15.65;;;;;;;;;;4983857;28;20620;-81
2024/01/12 02:57:58;;;;;;;37.65;23.42;;;;;;;;;;4982989;28;20048;-80
2024/01/12 03:00:24;;;;;;;34.22;20.00;;;;;;;;;;4978104;28;20473;-80
2024/01/12 03:02:50;;;;;;;46.83;23.17;;;;;;;;;;5009173;28;20628;-80
2024/01/12 03:05:15;;;;;;;34.75;21.67;;;;;;;;;;4978214;28;20133;-80
2024/01/12 03:07:41;;;;;;;35.83;20.10;;;;;;;;;;4982337;28;20559;-78
2024/01/12 03:10:06;;;;;;;28.10;16.33;;;;;;;;;;4968653;28;20429;-79
2024/01/12 03:12:32;;;;;;;37.80;19.83;;;;;;;;;;4978887;28;20037;-81
2024/01/12 03:14:57;;;;;;;17.13;15.45;;;;;;;;;;4963879;28;20057;-81
2024/01/12 03:17:23;;;;;;;12.00;10.80;;;;;;;;;;4976808;28;20034;-80
2024/01/12 03:19:49;;;;;;;29.23;16.50;;;;;;;;;;4978062;28;20038;-80
2024/01/12 03:22:14;;;;;;;27.08;20.98;;;;;;;;;;4979260;28;20072;-80
2024/01/12 03:24:40;;;;;;;11.82;10.43;;;;;;;;;;4973245;28;20042;-80
2024/01/12 03:27:05;;;;;;;22.33;11.73;;;;;;;;;;4975807;28;20081;-80
2024/01/12 03:29:31;;;;;;;25.50;18.23;;;;;;;;;;4965516;28;20042;-81
2024/01/12 03:31:57;;;;;;;42.28;22.63;;;;;;;;;;4961730;28;20145;-80
2024/01/12 03:34:22;;;;;;;15.80;14.40;;;;;;;;;;4977690;28;20050;-81
2024/01/12 03:36:48;;;;;;;12.77;11.50;;;;;;;;;;4980106;28;20061;-81
2024/01/12 03:39:13;;;;;;;29.35;22.77;;;;;;;;;;4978978;28;20595;-80
2024/01/12 03:41:39;;;;;;;16.85;12.70;;;;;;;;;;4980018;28;20551;-80
2024/01/12 03:44:04;;;;;;;26.35;18.27;;;;;;;;;;4975504;28;20122;-82
2024/01/12 03:46:30;;;;;;;21.33;15.77;;;;;;;;;;4962928;28;20669;-80
2024/01/12 03:48:56;;;;;;;23.75;18.35;;;;;;;;;;4976347;28;20065;-80
2024/01/12 03:51:22;;;;;;;25.55;18.65;;;;;;;;;;4978632;28;20034;-81
2024/01/12 03:53:48;;;;;;;28.00;21.08;;;;;;;;;;4975812;28;20046;-81
2024/01/12 03:56:13;;;;;;;26.73;17.92;;;;;;;;;;4975762;28;20038;-81
2024/01/12 03:58:39;;;;;;;28.50;19.23;;;;;;;;;;4974912;28;20038;-79
2024/01/12 04:01:07;;;;;;;20.35;14.18;;;;;;;;;;4979145;28;20049;-79
2024/01/12 04:03:33;;;;;;;9.15;7.68;;;;;;;;;;4990742;28;20043;-80
2024/01/12 04:05:59;;;;;;;21.85;16.70;;;;;;;;;;4978425;28;20042;-80
2024/01/12 04:08:25;;;;;;;10.88;9.63;;;;;;;;;;4960773;28;20109;-80
2024/01/12 04:10:50;;;;;;;16.58;13.00;;;;;;;;;;4962405;28;20042;-80
2024/01/12 04:13:16;;;;;;;15.57;12.38;;;;;;;;;;4977198;28;20481;-81
2024/01/12 04:15:43;;;;;;;14.88;12.18;;;;;;;;;;4962858;28;20503;-80
2024/01/12 04:18:09;;;;;;;13.13;11.85;;;;;;;;;;4976863;28;20041;-80
2024/01/12 04:20:35;;;;;;;16.67;13.88;;;;;;;;;;4978394;28;20042;-80
2024/01/12 04:23:00;;;;;;;15.48;13.85;;;;;;;;;;4979317;28;20121;-80
2024/01/12 04:25:26;;;;;;;13.50;12.30;;;;;;;;;;4958887;28;20050;-80
2024/01/12 04:27:51;;;;;;;18.50;14.82;;;;;;;;;;4974055;28;20070;-80
2024/01/12 04:30:17;;;;;;;17.60;14.45;;;;;;;;;;4960192;28;20460;-81
2024/01/12 04:32:42;;;;;;;35.33;20.70;;;;;;;;;;4980408;28;20069;-80
2024/01/12 04:35:09;;;;;;;43.95;23.40;;;;;;;;;;4977188;28;20114;-81
2024/01/12 04:37:35;;;;;;;32.60;18.40;;;;;;;;;;4961039;28;20042;-79
2024/01/12 04:40:00;;;;;;;19.52;12.85;;;;;;;;;;4961902;28;20042;-80
2024/01/12 04:42:26;;;;;;;21.20;10.80;;;;;;;;;;4976127;28;20049;-81
2024/01/12 04:44:51;;;;;;;9.27;8.40;;;;;;;;;;4978308;28;20038;-80
2024/01/12 04:47:17;;;;;;;14.30;13.00;;;;;;;;;;4974454;28;20034;-81
2024/01/12 04:49:43;;;;;;;12.48;11.35;;;;;;;;;;4975640;28;20117;-82
2024/01/12 04:52:08;;;;;;;16.92;13.88;;;;;;;;;;4976693;28;20038;-79
2024/01/12 04:54:34;;;;;;;23.20;15.77;;;;;;;;;;4962076;28;20133;-81
2024/01/12 04:56:59;;;;;;;41.97;25.90;;;;;;;;;;4979545;28;20045;-78
2024/01/12 04:59:25;;;;;;;36.35;25.13;;;;;;;;;;4991511;28;20046;-81
2024/01/12 05:01:51;;;;;;;19.83;14.55;;;;;;;;;;4946572;28;20046;-80
2024/01/12 05:04:17;;;;;;;26.30;18.05;;;;;;;;;;4976784;28;20534;-81
2024/01/12 05:06:43;;;;;;;32.00;21.20;;;;;;;;;;4978334;28;20042;-79
2024/01/12 05:09:08;;;;;;;33.17;20.98;;;;;;;;;;4971084;28;20041;-79
2024/01/12 05:11:34;;;;;;;29.05;20.75;;;;;;;;;;4961942;28;20038;-80
2024/01/12 05:13:59;;;;;;;26.65;17.00;;;;;;;;;;4994085;28;20100;-80
2024/01/12 05:16:25;;;;;;;24.83;16.95;;;;;;;;;;4960022;28;20074;-81
2024/01/12 05:18:51;;;;;;;39.25;24.90;;;;;;;;;;4979872;28;20113;-79
2024/01/12 05:21:16;;;;;;;40.10;24.88;;;;;;;;;;4968136;28;20042;-80
2024/01/12 05:23:44;;;;;;;31.67;18.52;;;;;;;;;;4981262;28;20034;-79
2024/01/12 05:26:12;;;;;;;32.03;19.70;;;;;;;;;;4980990;28;20041;-80
2024/01/12 05:28:37;;;;;;;20.48;15.38;;;;;;;;;;4983859;28;20125;-80
2024/01/12 05:31:03;;;;;;;32.63;21.42;;;;;;;;;;4981772;28;20109;-80
2024/01/12 05:33:29;;;;;;;26.58;21.05;;;;;;;;;;4980108;28;20500;-80
2024/01/12 05:35:54;;;;;;;46.72;26.95;;;;;;;;;;4978423;28;20109;-80
2024/01/12 05:38:20;;;;;;;40.08;21.77;;;;;;;;;;4982640;28;20045;-80
2024/01/12 05:40:45;;;;;;;38.45;23.27;;;;;;;;;;4981866;28;20038;-80
2024/01/12 05:43:11;;;;;;;26.45;17.60;;;;;;;;;;4952922;28;20492;-80
2024/01/12 05:45:36;;;;;;;10.93;9.82;;;;;;;;;;4980706;28;20539;-81
2024/01/12 05:48:02;;;;;;;16.63;13.80;;;;;;;;;;4949812;28;20042;-80
2024/01/12 05:50:28;;;;;;;10.88;10.05;;;;;;;;;;4980458;28;20571;-80
2024/01/12 05:52:53;;;;;;;26.83;15.93;;;;;;;;;;4980742;28;20073;-80
2024/01/12 05:55:19;;;;;;;26.25;20.20;;;;;;;;;;4981236;28;20660;-79
2024/01/12 05:57:44;;;;;;;12.60;10.52;;;;;;;;;;4967230;28;20068;-80
2024/01/12 06:00:10;;;;;;;13.32;11.88;;;;;;;;;;5012641;28;20395;-80
2024/01/12 06:02:36;;;;;;;8.68;7.93;;;;;;;;;;4978801;28;20100;-80
2024/01/12 06:05:01;;;;;;;25.35;16.42;;;;;;;;;;4983814;28;20441;-80
2024/01/12 06:07:27;;;;;;;13.07;11.07;;;;;;;;;;4979939;28;20505;-77
2024/01/12 06:09:53;;;;;;;11.13;7.97;;;;;;;;;;4981891;28;20041;-80
2024/01/12 06:12:19;;;;;;;23.38;16.85;;;;;;;;;;4977679;28;20049;-81
2024/01/12 06:14:44;;;;;;;24.10;19.38;;;;;;;;;;4965583;28;20068;-80
2024/01/12 06:17:10;;;;;;;16.48;12.23;;;;;;;;;;4980784;28;20042;-81
2024/01/12 06:19:35;;;;;;;27.52;21.15;;;;;;;;;;4979383;28;20513;-81
2024/01/12 06:22:01;;;;;;;13.90;10.80;;;;;;;;;;4965725;28;20042;-80
2024/01/12 06:24:27;;;;;;;16.92;13.95;;;;;;;;;;4980105;28;20408;-79
2024/01/12 06:26:52;;;;;;;15.20;11.10;;;;;;;;;;4964456;28;20628;-80
2024/01/12 06:29:18;;;;;;;24.75;19.50;;;;;;;;;;4977518;28;20444;-80
2024/01/12 06:31:44;;;;;;;19.38;17.50;;;;;;;;;;4980165;28;20552;-81
2024/01/12 06:34:09;;;;;;;18.88;14.23;;;;;;;;;;4980450;28;20038;-81
2024/01/12 06:36:41;;;;;;;10.68;9.30;;;;;;;;;;4964583;28;20042;-80
2024/01/12 06:39:08;;;;;;;13.38;12.13;;;;;;;;;;4977217;28;20431;-79
2024/01/12 06:41:34;;;;;;;19.65;15.63;;;;;;;;;;4980137;28;20078;-80
2024/01/12 06:44:00;;;;;;;56.75;21.95;;;;;;;;;;4989673;28;20046;-80
2024/01/12 06:46:25;;;;;;;17.13;13.43;;;;;;;;;;4975646;28;20520;-80
2024/01/12 06:48:51;;;;;;;22.73;15.95;;;;;;;;;;4981004;28;20416;-81
2024/01/12 06:51:23;;;;;;;38.20;18.35;;;;;;;;;;5008822;28;20109;-81
2024/01/12 06:53:49;;;;;;;35.85;19.65;;;;;;;;;;4978860;28;20034;-80
2024/01/12 06:56:23;;;;;;;17.13;15.23;;;;;;;;;;4992976;28;20104;-80
2024/01/12 06:58:49;;;;;;;46.90;25.40;;;;;;;;;;4979073;28;20046;-81
2024/01/12 07:01:19;;;;;;;34.75;22.48;;;;;;;;;;4978907;28;20027;-80
2024/01/12 07:03:45;;;;;;;16.75;14.75;;;;;;;;;;4979697;28;20717;-81
2024/01/12 07:06:11;;;;;;;11.93;10.77;;;;;;;;;;4986289;28;20034;-81
2024/01/12 07:08:36;;;;;;;36.45;17.50;;;;;;;;;;4947735;28;20590;-81
2024/01/12 07:11:03;;;;;;;23.00;19.00;;;;;;;;;;4964596;28;20097;-81
2024/01/12 07:13:28;;;;;;;23.20;14.88;;;;;;;;;;4974467;28;20085;-81
2024/01/12 07:15:54;;;;;;;30.65;20.77;;;;;;;;;;4961692;28;20483;-82
2024/01/12 07:18:20;;;;;;;8.98;8.25;;;;;;;;;;4978472;28;20049;-81
2024/01/12 07:20:46;;;;;;;18.58;14.45;;;;;;;;;;4979372;28;20042;-81
2024/01/12 07:23:12;;;;;;;37.35;24.38;;;;;;;;;;4979224;28;20120;-81
2024/01/12 07:25:38;;;;;;;22.30;17.10;;;;;;;;;;4962658;28;20058;-81
2024/01/12 07:28:07;;;;;;;20.60;18.23;;;;;;;;;;4947801;28;20042;-81
2024/01/12 07:30:33;;;;;;;23.05;17.38;;;;;;;;;;4962396;28;20184;-80
2024/01/12 07:32:59;;;;;;;16.77;12.88;;;;;;;;;;4978430;28;20134;-80
2024/01/12 07:35:25;;;;;;;25.88;17.98;;;;;;;;;;4975291;28;20037;-80
2024/01/12 07:37:51;;;;;;;22.25;17.67;;;;;;;;;;4963838;28;20042;-80
2024/01/12 07:40:17;;;;;;;19.42;15.85;;;;;;;;;;4974998;28;20046;-81
2024/01/12 07:42:43;;;;;;;13.93;12.60;;;;;;;;;;4981686;28;20046;-80
2024/01/12 07:45:10;;;;;;;24.05;19.30;;;;;;;;;;4987672;28;20083;-80
2024/01/12 07:47:36;;;;;;;7.00;6.45;;;;;;;;;;4978575;28;20100;-80
2024/01/12 07:50:02;;;;;;;24.08;15.50;;;;;;;;;;4943538;28;20046;-80
2024/01/12 07:52:27;;;;;;;22.83;16.27;;;;;;;;;;4977412;28;20057;-79
2024/01/12 07:54:53;;;;;;;19.65;17.02;;;;;;;;;;4960576;28;20061;-80
2024/01/12 07:57:18;;;;;;;34.40;21.10;;;;;;;;;;4996161;28;20104;-79
2024/01/12 07:59:44;;;;;;;29.42;20.48;;;;;;;;;;4962091;28;20046;-80
2024/01/12 08:02:09;;;;;;;19.70;15.30;;;;;;;;;;4962855;28;20520;-81
2024/01/12 08:04:38;;;;;;;24.08;18.08;;;;;;;;;;4993010;28;20042;-81
2024/01/12 08:07:06;;;;;;;19.83;14.82;;;;;;;;;;4965853;28;20117;-82
2024/01/12 08:09:32;;;;;;;29.20;18.83;;;;;;;;;;4971358;28;20096;-82
2024/01/12 08:11:58;;;;;;;29.70;20.88;;;;;;;;;;4981393;28;20042;-81
2024/01/12 08:14:23;;;;;;;42.90;23.15;;;;;;;;;;5007827;28;20378;-81
2024/01/12 08:16:49;;;;;;;44.90;25.02;;;;;;;;;;4979479;28;20125;-82
2024/01/12 08:19:15;;;;;;;33.60;16.98;;;;;;;;;;4963398;28;20034;-82
2024/01/12 08:21:41;;;;;;;32.70;21.40;;;;;;;;;;4963474;28;20149;-82
2024/01/12 08:24:07;;;;;;;36.20;24.02;;;;;;;;;;4948405;28;20069;-81
2024/01/12 08:26:33;;;;;;;32.65;21.05;;;;;;;;;;4963987;28;20759;-81
2024/01/12 08:29:01;;;;;;;37.28;21.25;;;;;;;;;;4966364;28;20034;-82
2024/01/12 08:31:28;;;;;;;35.85;23.63;;;;;;;;;;4964396;28;20053;-81
2024/01/12 08:33:54;;;;;;;29.67;19.60;;;;;;;;;;4965020;28;20050;-80
2024/01/12 08:36:19;;;;;;;40.65;22.80;;;;;;;;;;4947374;28;20069;-83
2024/01/12 08:38:45;;;;;;;42.00;23.92;;;;;;;;;;5012922;28;20065;-81
2024/01/12 08:41:12;;;;;;;36.97;21.92;;;;;;;;;;5006415;28;20042;-82
2024/01/12 08:43:39;;;;;;;36.00;19.95;;;;;;;;;;4950723;28;20084;-81
2024/01/12 08:46:04;;;;;;;43.30;21.90;;;;;;;;;;4980381;28;20072;-83
2024/01/12 08:48:30;;;;;;;55.05;24.85;;;;;;;;;;4963041;28;20042;-81
2024/01/12 08:50:56;;;;;;;44.78;23.63;;;;;;;;;;4965176;28;20084;-82
2024/01/12 08:53:21;;;;;;;38.20;24.35;;;;;;;;;;4982824;28;20038;-81
2024/01/12 08:55:48;;;;;;;43.22;22.20;;;;;;;;;;4981861;28;20367;-81
2024/01/12 08:58:13;;;;;;;33.38;22.17;;;;;;;;;;4966547;28;20042;-81
2024/01/12 09:00:39;;;;;;;27.05;19.65;;;;;;;;;;4970354;28;20038;-81
2024/01/12 09:03:05;;;;;;;38.50;23.88;;;;;;;;;;4981566;28;20046;-80
2024/01/12 09:05:31;;;;;;;43.83;25.88;;;;;;;;;;5014750;28;20034;-82
2024/01/12 09:07:56;;;;;;;47.50;24.95;;;;;;;;;;4952551;28;20404;-81
2024/01/12 09:10:22;;;;;;;45.22;25.50;;;;;;;;;;4984877;28;20098;-81
2024/01/12 09:12:47;;;;;;;42.80;25.05;;;;;;;;;;4965364;28;20038;-81
2024/01/12 09:15:14;;;;;;;46.67;26.05;;;;;;;;;;4968191;28;20127;-81
2024/01/12 09:17:40;;;;;;;53.03;26.23;;;;;;;;;;4983988;28;20061;-81
2024/01/12 09:20:07;;;;;;;40.15;25.15;;;;;;;;;;4966971;28;20053;-81
2024/01/12 09:22:33;;;;;;;59.75;26.75;;;;;;;;;;5022368;28;20041;-81
2024/01/12 09:24:59;;;;;;;52.83;24.90;;;;;;;;;;4969104;28;20034;-81
2024/01/12 09:27:24;;;;;;;49.40;26.70;;;;;;;;;;4976737;28;20477;-81
2024/01/12 09:29:50;;;;;;;40.95;23.42;;;;;;;;;;4965441;28;20425;-81
2024/01/12 09:32:16;;;;;;;49.08;24.52;;;;;;;;;;4961972;28;20371;-81
2024/01/12 09:34:41;;;;;;;35.47;22.58;;;;;;;;;;4966445;28;20046;-82
2024/01/12 09:37:07;;;;;;;41.20;22.90;;;;;;;;;;4980100;28;21259;-81
2024/01/12 09:39:32;;;;;;;36.95;21.52;;;;;;;;;;4983066;28;20084;-82
2024/01/12 09:42:04;;;;;;;48.50;26.77;;;;;;;;;;4949133;28;20148;-82
2024/01/12 09:44:36;;;;;;;35.20;20.83;;;;;;;;;;4950976;28;20034;-82
2024/01/12 09:47:02;;;;;;;48.47;27.05;;;;;;;;;;4971496;28;20053;-83
2024/01/12 09:49:30;;;;;;;43.55;26.30;;;;;;;;;;4983339;28;20058;-83
2024/01/12 09:52:01;;;;;;;38.08;23.30;;;;;;;;;;4984239;28;20042;-81
2024/01/12 09:54:27;;;;;;;44.97;24.42;;;;;;;;;;4963939;28;20042;-82
2024/01/12 09:56:55;;;;;;;54.80;30.55;;;;;;;;;;4962504;28;20034;-82
2024/01/12 09:59:22;;;;;;;45.17;24.75;;;;;;;;;;4966330;28;20034;-81
2024/01/12 10:01:49;;;;;;;57.47;31.52;;;;;;;;;;4967099;28;20034;-80
2024/01/12 10:04:15;;;;;;;34.05;23.00;;;;;;;;;;4976993;28;20112;-82
2024/01/12 10:06:40;;;;;;;58.22;29.48;;;;;;;;;;4982120;28;20061;-82
2024/01/12 10:09:06;;;;;;;51.95;29.83;;;;;;;;;;4996448;28;20034;-82
2024/01/12 10:11:32;;;;;;;41.65;26.27;;;;;;;;;;4955052;28;20160;-81
2024/01/12 10:13:58;;;;;;;40.53;21.73;;;;;;;;;;4986239;28;20145;-82
2024/01/12 10:16:28;;;;;;;52.13;26.58;;;;;;;;;;4979763;28;20661;-82
2024/01/12 10:19:00;;;;;;;52.40;27.45;;;;;;;;;;4964226;28;20053;-82
2024/01/12 10:21:26;;;;;;;52.72;29.70;;;;;;;;;;4964467;28;20136;-82
2024/01/12 10:24:02;;;;;;;57.50;30.02;;;;;;;;;;4981202;28;20050;-82
2024/01/12 10:26:28;;;;;;;41.35;24.73;;;;;;;;;;4974033;28;20764;-82
2024/01/12 10:28:54;;;;;;;56.15;29.77;;;;;;;;;;4979008;28;20551;-82
2024/01/12 10:31:20;;;;;;;47.50;27.10;;;;;;;;;;4980959;28;20496;-82
2024/01/12 10:33:46;;;;;;;44.28;27.70;;;;;;;;;;4979296;28;20516;-82
2024/01/12 10:36:18;;;;;;;40.97;26.80;;;;;;;;;;4979419;28;20030;-82
2024/01/12 10:38:45;;;;;;;54.38;31.70;;;;;;;;;;4979531;28;20342;-82
2024/01/12 10:41:12;;;;;;;54.45;29.65;;;;;;;;;;4965692;28;20104;-82
2024/01/12 10:43:38;;;;;;;51.65;29.92;;;;;;;;;;4981570;28;20550;-82
2024/01/12 10:46:33;;;;;;;62.03;30.40;;;;;;;;;;4980447;28;20052;-81
2024/01/12 10:49:05;;;;;;;48.33;27.02;;;;;;;;;;4980556;28;20750;-82
2024/01/12 10:51:35;;;;;;;60.33;32.85;;;;;;;;;;4982929;28;20176;-81
2024/01/12 10:54:08;;;;;;;58.88;31.35;;;;;;;;;;4980618;28;20057;-82
2024/01/12 10:56:35;;;;;;;52.83;27.23;;;;;;;;;;4963194;28;20042;-82
2024/01/12 10:59:04;;;;;;;42.67;25.88;;;;;;;;;;4946890;28;20089;-82
2024/01/12 11:01:35;;;;;;;48.30;26.80;;;;;;;;;;4980487;28;20072;-82
2024/01/12 11:04:03;;;;;;;50.65;29.45;;;;;;;;;;4995209;28;20046;-82
2024/01/12 11:06:29;;;;;;;57.33;30.85;;;;;;;;;;4981017;28;20043;-81
2024/01/12 11:08:56;;;;;;;52.35;29.77;;;;;;;;;;4982324;28;20068;-82
2024/01/12 11:11:26;;;;;;;43.92;24.42;;;;;;;;;;4945486;28;20073;-82
2024/01/12 11:13:53;;;;;;;53.35;30.27;;;;;;;;;;4977795;28;20038;-82
2024/01/12 11:16:21;;;;;;;54.67;31.52;;;;;;;;;;4965192;28;20034;-82
2024/01/12 11:18:46;;;;;;;46.53;26.33;;;;;;;;;;4962377;28;20038;-82
2024/01/12 11:21:12;;;;;;;56.67;31.38;;;;;;;;;;4980432;28;20031;-82
2024/01/12 11:23:40;;;;;;;49.45;27.10;;;;;;;;;;4978766;28;20056;-82
2024/01/12 11:26:08;;;;;;;42.90;27.05;;;;;;;;;;4986451;28;20058;-82
2024/01/12 11:28:38;;;;;;;42.72;25.25;;;;;;;;;;4948098;28;20053;-83
2024/01/12 11:31:04;;;;;;;50.20;29.20;;;;;;;;;;4961411;28;20779;-82
2024/01/12 11:33:31;;;;;;;23.10;16.08;;;;;;;;;;4947860;28;20118;-84
2024/01/12 11:36:01;;;;;;;39.63;23.88;;;;;;;;;;4978015;28;20524;-83
2024/01/12 11:38:38;;;;;;;49.83;29.20;;;;;;;;;;4964194;28;20982;-83
2024/01/12 11:41:10;;;;;;;54.55;31.38;;;;;;;;;;4967568;28;20096;-83
2024/01/12 11:43:35;;;;;;;51.03;30.25;;;;;;;;;;4961104;28;20117;-82
2024/01/12 11:46:02;;;;;;;53.17;30.10;;;;;;;;;;4945127;28;20681;-83
2024/01/12 11:48:30;;;;;;;49.70;28.50;;;;;;;;;;4951986;28;20595;-82
2024/01/12 11:50:56;;;;;;;46.00;29.23;;;;;;;;;;4973986;28;20644;-83
2024/01/12 11:53:22;;;;;;;47.72;26.48;;;;;;;;;;4960996;28;20034;-82
2024/01/12 11:55:48;;;;;;;48.80;30.38;;;;;;;;;;4986670;28;20120;-83
2024/01/12 11:58:14;;;;;;;58.00;31.60;;;;;;;;;;4978172;28;20038;-82
2024/01/12 12:00:40;;;;;;;58.55;31.23;;;;;;;;;;4975516;28;20064;-81
2024/01/12 12:03:08;;;;;;;63.97;29.88;;;;;;;;;;4961470;28;20038;-83
2024/01/12 12:05:34;;;;;;;52.92;32.38;;;;;;;;;;4952721;28;20042;-82
2024/01/12 12:08:02;;;;;;;66.40;33.15;;;;;;;;;;4989027;28;20038;-83
2024/01/12 12:10:28;;;;;;;57.97;32.28;;;;;;;;;;4980424;28;20967;-83
2024/01/12 12:12:54;;;;;;;50.70;26.95;;;;;;;;;;4976092;28;20069;-83
2024/01/12 12:15:20;;;;;;;60.63;34.10;;;;;;;;;;4962029;28;20141;-84
2024/01/12 12:17:48;;;;;;;51.85;30.05;;;;;;;;;;4958328;28;20054;-84
2024/01/12 12:20:15;;;;;;;54.78;33.10;;;;;;;;;;4955400;28;20060;-82
2024/01/12 12:22:45;;;;;;;61.42;32.72;;;;;;;;;;4958440;28;20122;-82
2024/01/12 12:25:13;;;;;;;54.08;29.27;;;;;;;;;;4977704;28;20042;-83
2024/01/12 12:27:40;;;;;;;47.50;27.42;;;;;;;;;;4966107;28;20126;-82
2024/01/12 12:30:10;;;;;;;56.50;30.80;;;;;;;;;;4980731;28;20069;-83
2024/01/12 12:32:43;;;;;;;60.35;30.67;;;;;;;;;;5001857;28;20747;-83
2024/01/12 12:35:23;;;;;;;51.97;27.55;;;;;;;;;;5012651;28;20034;-83
2024/01/12 12:37:51;;;;;;;56.38;32.00;;;;;;;;;;5012935;28;20041;-82
2024/01/12 12:40:18;;;;;;;56.60;31.60;;;;;;;;;;4999823;28;20041;-83
2024/01/12 12:42:48;;;;;;;56.33;32.33;;;;;;;;;;4997244;28;20152;-83
2024/01/12 12:45:15;;;;;;;45.53;25.63;;;;;;;;;;4997898;28;20037;-81
2024/01/12 12:47:40;;;;;;;53.03;29.60;;;;;;;;;;4984479;28;20184;-82
2024/01/12 12:50:11;;;;;;;47.33;26.77;;;;;;;;;;5006721;28;20136;-82
2024/01/12 12:52:38;;;;;;;65.25;32.70;;;;;;;;;;4997467;28;20030;-82
2024/01/12 12:55:05;;;;;;;52.08;28.23;;;;;;;;;;5002085;28;20045;-82
2024/01/12 12:57:31;;;;;;;46.03;25.98;;;;;;;;;;4998247;28;20046;-82
2024/01/12 12:59:57;;;;;;;59.67;31.20;;;;;;;;;;5000180;28;20053;-82
2024/01/12 13:02:24;;;;;;;50.63;28.65;;;;;;;;;;4999207;28;20041;-83
2024/01/12 13:04:50;;;;;;;44.45;23.63;;;;;;;;;;4995292;28;20038;-83
2024/01/12 13:07:16;;;;;;;55.08;29.00;;;;;;;;;;5002418;28;20117;-83
2024/01/12 13:09:41;;;;;;;49.58;24.92;;;;;;;;;;4966841;28;20049;-82
2024/01/12 13:12:09;;;;;;;47.50;27.45;;;;;;;;;;5005830;28;20061;-83
2024/01/12 13:14:34;;;;;;;43.85;24.73;;;;;;;;;;4964934;28;20123;-82
2024/01/12 13:17:00;;;;;;;52.83;28.73;;;;;;;;;;4983505;28;20053;-82
2024/01/12 13:19:26;;;;;;;49.60;27.05;;;;;;;;;;4995792;28;20508;-82
2024/01/12 13:21:52;;;;;;;53.70;29.27;;;;;;;;;;5003805;28;20056;-82
2024/01/12 13:24:18;;;;;;;46.17;25.80;;;;;;;;;;5000493;28;20037;-82
2024/01/12 13:26:43;;;;;;;46.83;25.95;;;;;;;;;;4981433;28;20740;-82
2024/01/12 13:29:09;;;;;;;53.05;27.30;;;;;;;;;;5012657;28;20088;-82
2024/01/12 13:31:35;;;;;;;51.05;27.33;;;;;;;;;;5001022;28;20487;-82
2024/01/12 13:34:01;;;;;;;42.42;25.38;;;;;;;;;;4999253;28;20045;-81
2024/01/12 13:36:27;;;;;;;46.90;25.98;;;;;;;;;;5000145;28;20042;-82
2024/01/12 13:38:53;;;;;;;33.88;21.45;;;;;;;;;;4990593;28;20041;-82
2024/01/12 13:41:23;;;;;;;53.35;28.67;;;;;;;;;;4986677;28;20042;-82
2024/01/12 13:43:49;;;;;;;45.33;25.65;;;;;;;;;;5001217;28;20029;-82
2024/01/12 13:46:15;;;;;;;51.47;26.40;;;;;;;;;;5013076;28;20121;-82
2024/01/12 13:48:41;;;;;;;41.78;24.08;;;;;;;;;;4968387;28;20049;-81
2024/01/12 13:51:08;;;;;;;35.22;22.88;;;;;;;;;;4980071;28;20045;-81
2024/01/12 13:53:34;;;;;;;40.72;24.73;;;;;;;;;;4995018;28;20041;-82
2024/01/12 13:56:00;;;;;;;48.25;25.60;;;;;;;;;;4987964;28;20282;-82
2024/01/12 13:58:26;;;;;;;46.25;24.08;;;;;;;;;;4998588;28;20548;-82
2024/01/12 14:00:52;;;;;;;49.20;26.67;;;;;;;;;;4981290;28;20117;-83
2024/01/12 14:03:18;;;;;;;52.80;27.40;;;;;;;;;;4997329;28;20736;-83
2024/01/12 14:05:44;;;;;;;46.75;25.50;;;;;;;;;;4981320;28;20046;-82
2024/01/12 14:08:12;;;;;;;32.80;20.85;;;;;;;;;;4975157;28;20048;-82
2024/01/12 14:10:40;;;;;;;42.00;25.02;;;;;;;;;;4982372;28;20115;-83
2024/01/12 14:13:06;;;;;;;42.15;24.33;;;;;;;;;;4981590;28;20124;-82